Time;durP1;ratioP1;P1;durP2;ratioP2;P2;SDS_P1;SDS_P2;PMS_P1;PMS_P2;Temp;Humidity;BMP_temperature;BMP_pressure;BME280_temperature;BME280_humidity;BME280_pressure;Samples;Min_cycle;Max_cycle;Signal;HPM_P1;HPM_P2
2022/09/16 06:26:28;;;;;;;;;18.00;15.00;;;;;13.82;76.56;100585.00;5106981;27;45354;-77
2022/09/16 06:28:54;;;;;;;;;17.00;14.00;;;;;14.03;75.36;100584.25;5091267;27;45352;-77
2022/09/16 06:31:23;;;;;;;;;18.50;15.00;;;;;14.14;74.88;100556.47;5102220;27;45499;-77
2022/09/16 06:33:49;;;;;;;;;15.50;13.75;;;;;14.47;73.61;100567.69;5104540;27;45531;-76
2022/09/16 06:36:20;;;;;;;;;14.00;13.00;;;;;14.85;72.07;100577.84;5094700;27;45495;-77
2022/09/16 06:38:48;;;;;;;;;17.00;14.00;;;;;15.45;70.15;100570.19;5098394;27;45494;-77
2022/09/16 06:41:15;;;;;;;;;14.75;14.50;;;;;15.57;68.81;100556.38;5090764;27;45433;-78
2022/09/16 06:43:41;;;;;;;;;15.25;12.25;;;;;15.76;68.04;100568.91;5105965;27;45497;-77
2022/09/16 06:46:12;;;;;;;;;16.50;14.75;;;;;15.96;67.41;100569.00;5100522;27;46026;-78
2022/09/16 06:48:39;;;;;;;;;11.00;11.00;;;;;16.01;66.82;100560.81;5089681;27;45495;-78
2022/09/16 06:51:08;;;;;;;;;10.50;7.00;;;;;16.10;66.84;100570.22;5099098;27;45516;-77
2022/09/16 06:53:33;;;;;;;;;13.25;12.25;;;;;16.17;66.49;100572.53;5105679;27;45392;-77
2022/09/16 06:56:05;;;;;;;;;14.00;13.50;;;;;16.23;65.68;100560.75;5100672;27;46300;-77
2022/09/16 06:58:35;;;;;;;;;16.50;15.25;;;;;16.40;65.50;100573.34;5097967;27;45563;-77
2022/09/16 07:01:24;;;;;;;;;15.00;13.25;;;;;16.66;65.14;100569.50;5105774;27;45421;-77
2022/09/16 07:03:51;;;;;;;;;12.50;11.75;;;;;17.40;62.29;100583.91;5100227;27;45483;-78
2022/09/16 07:06:19;;;;;;;;;12.75;11.50;;;;;18.26;60.57;100586.78;5101372;27;45439;-79
2022/09/16 07:08:45;;;;;;;;;13.75;12.75;;;;;19.03;58.42;100592.56;5098676;27;45484;-77
2022/09/16 07:11:17;;;;;;;;;12.00;11.50;;;;;19.08;57.07;100594.03;5090259;27;45456;-77
2022/09/16 07:13:43;;;;;;;;;12.00;11.50;;;;;18.92;56.58;100594.03;5089922;27;45600;-75
2022/09/16 07:16:11;;;;;;;;;11.25;10.75;;;;;18.71;57.05;100592.47;5092043;27;45469;-77
2022/09/16 07:18:37;;;;;;;;;11.75;9.50;;;;;18.60;57.11;100590.38;5104809;27;45396;-78
2022/09/16 07:21:09;;;;;;;;;12.50;8.50;;;;;18.33;56.89;100598.06;5107376;27;45757;-77
2022/09/16 07:23:35;;;;;;;;;13.25;11.25;;;;;18.11;58.11;100589.31;5100620;27;45524;-76
2022/09/16 07:26:11;;;;;;;;;16.00;12.50;;;;;18.10;58.16;100602.78;5101814;27;46386;-77
2022/09/16 07:28:38;;;;;;;;;11.75;11.25;;;;;17.99;58.75;100606.00;5094067;27;45412;-77
2022/09/16 07:31:09;;;;;;;;;10.75;8.50;;;;;17.93;58.36;100615.19;5097032;27;45419;-76
2022/09/16 07:33:39;;;;;;;;;12.75;9.75;;;;;17.94;58.83;100622.25;5094804;27;45580;-76
2022/09/16 07:36:08;;;;;;;;;12.00;11.25;;;;;17.96;58.79;100621.31;5090813;27;46655;-76
2022/09/16 07:38:34;;;;;;;;;9.25;9.25;;;;;17.88;58.70;100598.44;5086812;27;45533;-77
2022/09/16 07:41:20;;;;;;;;;8.25;8.25;;;;;18.02;58.56;100616.53;5077392;27;45379;-77
2022/09/16 07:43:46;;;;;;;;;10.25;9.75;;;;;18.18;58.02;100621.09;5076554;27;45509;-77
2022/09/16 07:46:15;;;;;;;;;13.00;8.50;;;;;18.22;57.92;100615.50;5081068;27;45406;-76
2022/09/16 07:48:41;;;;;;;;;11.25;9.00;;;;;18.20;57.29;100601.34;5076208;27;45446;-76
2022/09/16 07:51:10;;;;;;;;;7.25;7.25;;;;;18.69;55.99;100615.78;5087298;27;45482;-77
2022/09/16 07:53:36;;;;;;;;;4.00;4.00;;;;;19.64;53.04;100609.69;5085683;27;45536;-76
2022/09/16 07:56:08;;;;;;;;;8.25;7.25;;;;;20.29;51.65;100614.84;5078015;27;46582;-76
2022/09/16 07:58:34;;;;;;;;;11.75;9.75;;;;;21.41;48.79;100631.22;5089921;27;45452;-76
2022/09/16 08:01:00;;;;;;;;;5.50;4.00;;;;;22.32;47.55;100613.63;5086046;27;45404;-76
2022/09/16 08:03:25;;;;;;;;;8.00;6.50;;;;;22.96;45.38;100618.16;5090768;27;45408;-76
2022/09/16 08:05:51;;;;;;;;;8.50;7.00;;;;;22.97;44.68;100614.47;5096103;27;46294;-80
2022/09/16 08:08:17;;;;;;;;;7.50;6.00;;;;;22.81;44.16;100614.72;5076979;27;45490;-76
2022/09/16 08:10:42;;;;;;;;;5.00;5.00;;;;;22.44;44.65;100622.66;5082422;27;45381;-76
2022/09/16 08:13:08;;;;;;;;;7.00;5.50;;;;;22.00;45.30;100608.56;5083656;27;45437;-78
2022/09/16 08:15:34;;;;;;;;;4.00;2.00;;;;;22.01;45.15;100629.13;5083739;27;45475;-76
2022/09/16 08:17:59;;;;;;;;;3.75;3.75;;;;;21.92;44.67;100630.59;5081431;27;45476;-77
2022/09/16 08:20:25;;;;;;;;;5.00;4.50;;;;;21.80;44.53;100618.84;5089572;27;45557;-77
2022/09/16 08:22:51;;;;;;;;;4.25;3.00;;;;;21.59;43.80;100636.38;5078285;27;45540;-76
2022/09/16 08:25:17;;;;;;;;;6.00;4.00;;;;;21.26;44.75;100614.25;5083003;27;45777;-76
2022/09/16 08:27:42;;;;;;;;;5.00;5.00;;;;;21.12;43.96;100633.94;5089829;27;45621;-77
2022/09/16 08:30:09;;;;;;;;;3.75;3.75;;;;;20.81;42.79;100635.00;5081258;27;45482;-77
2022/09/16 08:32:34;;;;;;;;;3.25;3.00;;;;;20.39;43.49;100629.44;5075786;27;45627;-74
2022/09/16 08:35:00;;;;;;;;;5.75;5.75;;;;;20.16;44.63;100643.34;5076053;27;45393;-75
2022/09/16 08:37:25;;;;;;;;;6.25;6.00;;;;;20.02;47.04;100639.66;5078318;27;45530;-73
2022/09/16 08:39:51;;;;;;;;;4.50;4.00;;;;;19.88;46.71;100645.84;5087608;27;45471;-77
2022/09/16 08:42:51;;;;;;;;;3.25;3.25;;;;;19.70;46.75;100649.56;5079908;27;45573;-79
2022/09/16 08:45:28;;;;;;;;;7.00;5.50;;;;;19.44;47.33;100664.44;5075246;27;45588;-77
2022/09/16 08:48:31;;;;;;;;;4.50;3.00;;;;;19.17;48.37;100660.47;5084838;27;45484;-76
2022/09/16 08:50:59;;;;;;;;;2.00;2.00;;;;;18.90;47.80;100670.88;5084206;27;45661;-76
2022/09/16 08:53:40;;;;;;;;;1.50;1.25;;;;;18.78;47.41;100667.03;5085954;27;45481;-76
2022/09/16 08:56:11;;;;;;;;;3.00;3.00;;;;;18.65;47.11;100664.13;5090477;27;46270;-76
2022/09/16 08:58:44;;;;;;;;;3.00;3.00;;;;;18.61;46.59;100656.31;5102399;27;45495;-77
2022/09/16 09:01:28;;;;;;;;;2.75;2.75;;;;;18.71;47.33;100670.09;5080399;27;45535;-76
2022/09/16 09:03:53;;;;;;;;;3.00;3.00;;;;;18.70;47.22;100665.69;5081939;27;46306;-76
2022/09/16 09:06:24;;;;;;;;;4.00;4.00;;;;;18.78;48.49;100669.69;5090674;27;45823;-76
2022/09/16 09:09:23;;;;;;;;;4.00;3.00;;;;;18.83;48.47;100661.44;5078819;27;45525;-77
2022/09/16 09:12:13;;;;;;;;;3.75;3.75;;;;;18.98;47.17;100673.16;5083338;27;45709;-77
2022/09/16 09:15:22;;;;;;;;;2.00;2.00;;;;;19.04;46.89;100671.94;5081071;27;45365;-76
2022/09/16 09:18:14;;;;;;;;;4.00;4.00;;;;;18.95;45.58;100660.81;5080998;27;45591;-77
2022/09/16 09:21:07;;;;;;;;;4.25;2.00;;;;;19.08;45.97;100689.59;5082845;27;45589;-77
2022/09/16 09:24:02;;;;;;;;;3.75;2.00;;;;;19.09;45.70;100683.31;5082205;27;45498;-77
2022/09/16 09:26:37;;;;;;;;;2.50;1.00;;;;;19.14;46.16;100686.59;5085123;27;45445;-77
2022/09/16 09:29:27;;;;;;;;;3.00;2.00;;;;;19.35;46.38;100684.56;5083041;27;46539;-76
2022/09/16 09:32:04;;;;;;;;;6.25;4.00;;;;;19.61;45.21;100682.25;5080026;27;45412;-76
2022/09/16 09:34:39;;;;;;;;;2.00;2.00;;;;;19.84;44.26;100687.22;5074798;27;45537;-76
2022/09/16 09:37:28;;;;;;;;;2.00;1.00;;;;;20.08;43.95;100683.19;5084059;27;45322;-77
2022/09/16 09:40:11;;;;;;;;;2.25;2.25;;;;;20.12;42.38;100684.72;5082761;27;46588;-76
2022/09/16 09:43:08;;;;;;;;;2.25;2.25;;;;;20.31;42.71;100685.38;5084377;27;45370;-78
2022/09/16 09:45:57;;;;;;;;;1.75;1.75;;;;;20.47;42.35;100700.59;5077141;27;45460;-76
2022/09/16 09:48:35;;;;;;;;;1.00;1.00;;;;;20.77;41.50;100693.41;5073270;27;45534;-76
2022/09/16 09:51:12;;;;;;;;;3.00;3.00;;;;;20.99;40.33;100694.78;5077874;27;45401;-77
2022/09/16 09:53:46;;;;;;;;;3.00;2.00;;;;;21.24;40.72;100695.91;5084677;27;45481;-78
2022/09/16 09:56:29;;;;;;;;;3.00;3.00;;;;;21.50;39.41;100685.38;5083610;27;45450;-77
2022/09/16 09:59:16;;;;;;;;;3.75;3.75;;;;;22.00;39.63;100697.34;5068706;27;45723;-78
2022/09/16 10:01:41;;;;;;;;;1.75;1.00;;;;;22.48;37.67;100678.91;5079663;27;45426;-77
2022/09/16 10:04:14;;;;;;;;;5.00;3.00;;;;;23.22;36.37;100691.78;5087833;27;45424;-77
2022/09/16 10:06:41;;;;;;;;;2.00;2.00;;;;;24.02;35.48;100690.50;5086536;27;45514;-77
2022/09/16 10:09:13;;;;;;;;;3.00;3.00;;;;;24.64;34.37;100678.63;5073844;27;45505;-76
2022/09/16 10:11:47;;;;;;;;;3.00;3.00;;;;;25.00;33.39;100674.88;5075819;27;45605;-78
2022/09/16 10:14:24;;;;;;;;;2.00;2.00;;;;;25.32;32.25;100676.88;5077996;27;45506;-78
2022/09/16 10:16:51;;;;;;;;;4.00;3.00;;;;;25.44;31.12;100676.88;5077129;27;45545;-79
2022/09/16 10:19:21;;;;;;;;;1.00;1.00;;;;;25.42;30.72;100673.47;5081626;27;45512;-79
2022/09/16 10:21:52;;;;;;;;;3.50;3.50;;;;;25.87;30.58;100678.75;5082255;27;45508;-78
2022/09/16 10:24:36;;;;;;;;;4.75;2.75;;;;;25.58;29.35;100682.03;5078184;27;45925;-77
2022/09/16 10:27:21;;;;;;;;;2.50;2.50;;;;;25.38;30.35;100677.38;5086280;27;45373;-78
2022/09/16 10:29:47;;;;;;;;;6.00;5.00;;;;;24.92;30.98;100681.91;5086077;27;45440;-77
2022/09/16 10:32:18;;;;;;;;;3.25;2.00;;;;;24.42;32.57;100684.81;5076706;27;45442;-81
2022/09/16 10:34:45;;;;;;;;;2.50;2.00;;;;;23.98;31.68;100684.50;5075412;27;45525;-77
2022/09/16 10:37:13;;;;;;;;;3.25;3.25;;;;;23.70;31.87;100685.63;5085167;27;45816;-77
2022/09/16 10:39:44;;;;;;;;;3.00;3.00;;;;;23.66;31.35;100676.06;5087816;27;45397;-78
2022/09/16 10:42:22;;;;;;;;;3.50;2.50;;;;;23.64;31.39;100684.28;5080115;27;45348;-78
2022/09/16 10:44:50;;;;;;;;;3.75;3.00;;;;;23.67;31.24;100684.06;5071739;27;45609;-79
2022/09/16 10:47:27;;;;;;;;;1.50;1.50;;;;;23.87;30.92;100681.75;5080689;27;45523;-77
2022/09/16 10:50:00;;;;;;;;;5.25;3.00;;;;;23.99;30.35;100682.66;5086837;27;45462;-77
2022/09/16 10:52:28;;;;;;;;;1.50;1.50;;;;;24.09;31.05;100686.38;5084196;27;45488;-76
2022/09/16 10:54:55;;;;;;;;;3.00;1.50;;;;;24.03;30.17;100703.03;5083125;27;45377;-77
2022/09/16 10:57:31;;;;;;;;;4.25;2.50;;;;;23.85;30.58;100691.78;5086048;27;45352;-79
2022/09/16 11:00:12;;;;;;;;;2.75;2.75;;;;;23.72;30.37;100691.81;5082592;27;45614;-79
2022/09/16 11:03:00;;;;;;;;;3.00;3.00;;;;;23.59;31.38;100678.34;5081536;27;45534;-77
2022/09/16 11:06:04;;;;;;;;;2.75;2.75;;;;;23.76;31.10;100695.97;5081512;27;45580;-78
2022/09/16 11:08:48;;;;;;;;;2.00;2.00;;;;;23.85;30.88;100692.63;5086064;27;45677;-77
2022/09/16 11:11:32;;;;;;;;;3.00;3.00;;;;;23.73;31.83;100691.69;5077043;27;45541;-78
2022/09/16 11:14:15;;;;;;;;;2.00;2.00;;;;;23.70;32.33;100688.34;5072392;27;46799;-77
2022/09/16 11:17:02;;;;;;;;;2.00;2.00;;;;;23.81;31.67;100683.03;5078025;27;45457;-77
2022/09/16 11:19:56;;;;;;;;;2.00;2.00;;;;;23.90;33.02;100687.78;5085256;27;45492;-77
2022/09/16 11:22:30;;;;;;;;;4.00;2.25;;;;;24.19;32.77;100689.28;5075282;27;45561;-76
2022/09/16 11:25:14;;;;;;;;;3.25;3.25;;;;;24.49;32.13;100694.19;5079601;27;46579;-77
2022/09/16 11:28:18;;;;;;;;;2.75;2.75;;;;;24.41;32.00;100683.06;5081637;27;45434;-89
2022/09/16 11:31:08;;;;;;;;;3.00;2.75;;;;;24.12;32.14;100678.91;5010051;28;45714;-78
2022/09/16 11:33:41;;;;;;;;;2.50;2.50;;;;;24.46;32.12;100683.56;5011507;28;45641;-80
2022/09/16 11:36:36;;;;;;;;;2.25;2.25;;;;;24.91;32.16;100670.19;5006825;28;45819;-79
2022/09/16 11:39:30;;;;;;;;;3.25;3.00;;;;;25.17;31.46;100683.50;5013059;28;45427;-78
2022/09/16 11:42:02;;;;;;;;;4.00;2.50;;;;;25.11;30.93;100692.97;5010129;28;45530;-78
2022/09/16 11:44:45;;;;;;;;;3.75;2.00;;;;;24.85;30.46;100669.84;5012599;28;45443;-77
2022/09/16 11:47:26;;;;;;;;;3.75;2.50;;;;;24.54;31.37;100693.81;5009577;28;45617;-78
2022/09/16 11:50:06;;;;;;;;;2.00;2.00;;;;;24.52;31.49;100693.94;4997543;28;45551;-79
2022/09/16 11:52:47;;;;;;;;;1.75;1.75;;;;;24.31;32.36;100693.75;5011915;28;45510;-77
2022/09/16 11:55:33;;;;;;;;;1.75;1.25;;;;;24.14;31.95;100686.88;5006185;28;45493;-77
2022/09/16 11:58:04;;;;;;;;;1.25;1.25;;;;;24.20;31.90;100659.47;5011840;28;45642;-78
2022/09/16 12:00:33;;;;;;;;;2.00;0.50;;;;;24.59;32.23;100691.66;5017310;28;46154;-86
2022/09/16 12:03:05;;;;;;;;;0.75;0.00;;;;;25.24;30.92;100695.53;5002465;28;45549;-75
2022/09/16 12:05:37;;;;;;;;;2.00;2.00;;;;;24.98;30.60;100673.31;5010778;28;45542;-77
2022/09/16 12:08:08;;;;;;;;;1.00;1.00;;;;;24.75;30.85;100688.59;5059398;27;45546;-78
2022/09/16 12:10:48;;;;;;;;;2.00;2.00;;;;;24.66;30.97;100682.09;5084585;27;45420;-78
2022/09/16 12:13:22;;;;;;;;;2.00;2.00;;;;;24.57;31.00;100689.03;5093031;27;45551;-77
2022/09/16 12:15:56;;;;;;;;;2.50;2.50;;;;;24.52;30.96;100671.44;5092441;27;45638;-76
2022/09/16 12:18:43;;;;;;;;;2.50;2.00;;;;;24.54;31.15;100683.00;5090766;27;45733;-76
2022/09/16 12:21:24;;;;;;;;;1.25;1.25;;;;;24.36;31.26;100683.44;5090791;27;45505;-78
2022/09/16 12:23:57;;;;;;;;;1.00;1.00;;;;;24.19;31.67;100689.28;5097892;27;45447;-76
2022/09/16 12:26:36;;;;;;;;;2.00;2.00;;;;;24.07;31.69;100682.94;5092276;27;45524;-77
2022/09/16 12:29:25;;;;;;;;;2.00;2.00;;;;;23.87;31.38;100685.31;5078048;27;46143;-77
2022/09/16 12:31:58;;;;;;;;;2.00;2.00;;;;;23.59;31.47;100686.44;5082620;27;45439;-77
2022/09/16 12:34:28;;;;;;;;;2.25;2.25;;;;;23.52;31.73;100687.84;5078493;27;45511;-76
2022/09/16 12:37:02;;;;;;;;;2.00;2.00;;;;;23.45;31.69;100683.88;5084833;27;45558;-77
2022/09/16 12:39:27;;;;;;;;;2.00;2.00;;;;;23.35;30.65;100672.88;5084952;27;46397;-78
2022/09/16 12:42:14;;;;;;;;;2.00;2.00;;;;;23.12;31.41;100694.25;5078659;27;45439;-76
2022/09/16 12:45:15;;;;;;;;;2.50;2.50;;;;;23.00;30.19;100689.72;5074962;27;45527;-77
2022/09/16 12:47:47;;;;;;;;;1.75;1.75;;;;;23.08;30.67;100695.44;5059054;27;45763;-76
2022/09/16 12:50:54;;;;;;;;;2.25;1.00;;;;;23.35;30.14;100692.66;5069420;27;45512;-79
2022/09/16 12:53:31;;;;;;;;;3.00;1.75;;;;;23.55;29.61;100684.91;4969756;28;45603;-77
2022/09/16 12:56:08;;;;;;;;;3.00;2.00;;;;;23.56;29.20;100671.34;4970706;28;45575;-78
2022/09/16 12:58:42;;;;;;;;;1.00;1.00;;;;;23.67;29.33;100680.47;4970433;28;45618;-78
2022/09/16 13:01:16;;;;;;;;;2.00;2.00;;;;;23.67;29.86;100678.66;4967086;28;45641;-78
2022/09/16 13:03:47;;;;;;;;;2.00;2.00;;;;;23.85;29.45;100683.69;4967567;28;45522;-78
2022/09/16 13:06:34;;;;;;;;;2.25;1.50;;;;;24.04;30.23;100675.94;4971232;28;45544;-78
2022/09/16 13:09:37;;;;;;;;;2.00;2.00;;;;;24.11;29.57;100676.31;4967343;28;45513;-78
2022/09/16 13:12:05;;;;;;;;;1.00;1.00;;;;;24.25;29.81;100670.75;4905280;28;45512;-77
2022/09/16 13:14:36;;;;;;;;;2.00;2.00;;;;;24.26;29.64;100671.59;4909430;28;45724;-77
2022/09/16 13:17:02;;;;;;;;;2.25;2.25;;;;;24.06;29.44;100648.84;4908659;28;45550;-77
2022/09/16 13:19:49;;;;;;;;;2.00;2.00;;;;;24.08;29.39;100679.25;4900329;28;45418;-77
2022/09/16 13:22:47;;;;;;;;;1.25;1.25;;;;;23.83;29.77;100672.13;4920192;28;46058;-77
2022/09/16 13:25:25;;;;;;;;;1.00;1.00;;;;;23.51;30.65;100687.00;4936270;28;45629;-77
2022/09/16 13:27:56;;;;;;;;;1.00;1.00;;;;;23.24;30.63;100688.03;4946766;28;45733;-77
2022/09/16 13:30:35;;;;;;;;;1.50;1.50;;;;;23.02;31.30;100690.50;4995561;28;45621;-77
2022/09/16 13:33:20;;;;;;;;;1.50;1.50;;;;;22.52;32.50;100683.13;4996388;28;46155;-76
2022/09/16 13:35:48;;;;;;;;;2.75;2.75;;;;;22.12;33.91;100699.25;5021194;28;45537;-78
2022/09/16 13:38:13;;;;;;;;;1.50;1.50;;;;;21.81;34.86;100698.56;5022189;28;45588;-78
2022/09/16 13:40:40;;;;;;;;;1.25;1.25;;;;;21.65;34.77;100701.41;5025890;28;45652;-77
2022/09/16 13:43:08;;;;;;;;;1.25;1.25;;;;;21.41;35.89;100693.03;5018445;28;45609;-78
2022/09/16 13:45:39;;;;;;;;;4.25;3.00;;;;;21.14;36.78;100690.28;5017951;28;45616;-78
2022/09/16 13:48:18;;;;;;;;;0.50;0.00;;;;;20.91;36.84;100689.03;5056334;27;45508;-77
2022/09/16 13:50:50;;;;;;;;;2.25;2.00;;;;;20.66;37.41;100679.75;5075676;27;45621;-77
2022/09/16 13:53:33;;;;;;;;;1.25;1.25;;;;;20.54;37.46;100691.19;5085649;27;45568;-78
2022/09/16 13:56:23;;;;;;;;;2.75;2.75;;;;;20.66;37.35;100697.69;5082054;27;45381;-78
2022/09/16 13:59:14;;;;;;;;;3.00;3.00;;;;;20.67;37.08;100692.22;5079111;27;45550;-76
2022/09/16 14:01:47;;;;;;;;;2.00;1.25;;;;;20.66;36.94;100700.38;5085072;27;45685;-77
2022/09/16 14:04:40;;;;;;;;;2.00;2.00;;;;;20.70;37.07;100702.78;5072307;27;46308;-77
2022/09/16 14:07:33;;;;;;;;;2.00;1.50;;;;;20.73;36.81;100682.94;5082156;27;45327;-76
2022/09/16 14:10:02;;;;;;;;;2.75;2.50;;;;;20.98;36.51;100690.34;5090349;27;45380;-79
2022/09/16 14:12:47;;;;;;;;;1.00;1.00;;;;;21.06;36.25;100682.69;5086272;27;45484;-77
2022/09/16 14:15:15;;;;;;;;;1.50;1.50;;;;;21.05;36.15;100690.84;5082620;27;45419;-77
2022/09/16 14:17:45;;;;;;;;;1.75;1.75;;;;;20.95;36.26;100687.84;5080965;27;45545;-78
2022/09/16 14:20:21;;;;;;;;;1.00;1.00;;;;;21.00;35.79;100687.56;5080758;27;45516;-77
2022/09/16 14:22:46;;;;;;;;;0.00;0.00;;;;;20.97;35.78;100687.75;5079405;27;45538;-78
2022/09/16 14:25:44;;;;;;;;;3.00;3.00;;;;;20.94;35.92;100688.81;5079558;27;45563;-77
2022/09/16 14:28:17;;;;;;;;;1.25;1.25;;;;;20.87;36.18;100698.22;5043012;28;45541;-78
2022/09/16 14:31:05;;;;;;;;;1.75;1.75;;;;;20.69;36.18;100693.00;5034443;28;45430;-76
2022/09/16 14:33:36;;;;;;;;;1.50;1.50;;;;;20.51;36.63;100702.13;5042446;28;45400;-78
2022/09/16 14:36:10;;;;;;;;;2.50;2.50;;;;;20.29;37.58;100706.09;5044249;28;45423;-78
2022/09/16 14:38:54;;;;;;;;;3.75;2.00;;;;;20.02;38.69;100708.56;5044850;28;45554;-79
2022/09/16 14:41:58;;;;;;;;;1.00;1.00;;;;;19.79;41.53;100717.91;5031443;28;45558;-78
2022/09/16 14:44:39;;;;;;;;;2.00;2.00;;;;;19.65;40.17;100702.56;4966911;28;45535;-78
2022/09/16 14:47:23;;;;;;;;;0.25;0.25;;;;;19.60;41.10;100704.63;4959505;28;45723;-78
2022/09/16 14:50:02;;;;;;;;;1.25;1.00;;;;;19.53;41.15;100693.41;4967560;28;45459;-77
2022/09/16 14:52:30;;;;;;;;;2.00;0.25;;;;;19.40;39.85;100695.00;4970323;28;45682;-77
2022/09/16 14:54:56;;;;;;;;;1.00;1.00;;;;;19.33;40.01;100692.69;4983404;28;45702;-77
2022/09/16 14:57:24;;;;;;;;;0.75;0.75;;;;;19.45;40.03;100706.34;4968988;28;46024;-77
2022/09/16 14:59:54;;;;;;;;;2.00;1.00;;;;;19.43;40.64;100714.47;4962206;28;45621;-77
2022/09/16 15:02:19;;;;;;;;;1.00;1.00;;;;;19.38;39.33;100721.03;4969934;28;45581;-79
2022/09/16 15:04:49;;;;;;;;;1.00;1.00;;;;;19.34;39.34;100715.84;5018791;28;45438;-78
2022/09/16 15:07:21;;;;;;;;;1.00;1.00;;;;;19.37;39.42;100712.13;5024242;28;45598;-78
2022/09/16 15:09:58;;;;;;;;;1.75;1.00;;;;;19.43;39.52;100718.97;5028471;28;45502;-77
2022/09/16 15:12:30;;;;;;;;;1.75;0.50;;;;;19.49;39.09;100697.19;5027519;28;45410;-79
2022/09/16 15:14:56;;;;;;;;;1.00;1.00;;;;;19.50;38.71;100702.47;5018320;28;45746;-77
2022/09/16 15:17:26;;;;;;;;;1.25;1.25;;;;;19.53;38.74;100704.13;5014182;28;46717;-78
2022/09/16 15:19:57;;;;;;;;;1.00;1.00;;;;;19.60;38.83;100699.25;5047083;27;45362;-79
2022/09/16 15:22:24;;;;;;;;;2.00;1.00;;;;;19.65;37.61;100702.56;5086284;27;45405;-78
2022/09/16 15:24:54;;;;;;;;;2.00;1.50;;;;;19.66;37.98;100697.13;5084358;27;45463;-78
2022/09/16 15:27:25;;;;;;;;;2.00;2.00;;;;;19.65;37.66;100699.91;5092295;27;45622;-78
2022/09/16 15:29:56;;;;;;;;;2.00;2.00;;;;;19.61;36.59;100695.66;5092030;27;45750;-77
2022/09/16 15:32:26;;;;;;;;;1.00;1.00;;;;;19.52;37.47;100683.63;5088150;27;45601;-77
2022/09/16 15:35:22;;;;;;;;;1.00;1.00;;;;;19.47;37.01;100693.75;5082569;27;45443;-77
2022/09/16 15:37:48;;;;;;;;;2.00;1.00;;;;;19.49;37.56;100697.19;5084951;27;45559;-76
2022/09/16 15:40:22;;;;;;;;;1.00;1.00;;;;;19.44;37.63;100702.81;5081696;27;45560;-77
2022/09/16 15:43:18;;;;;;;;;1.00;1.00;;;;;19.49;37.84;100694.50;5093860;27;45610;-78
2022/09/16 15:45:56;;;;;;;;;1.00;1.00;;;;;19.56;37.28;100693.22;5079316;27;45483;-78
2022/09/16 15:48:25;;;;;;;;;1.00;1.00;;;;;19.61;37.49;100698.31;5083710;27;46253;-78
2022/09/16 15:50:54;;;;;;;;;2.00;2.00;;;;;19.67;37.52;100696.16;5088321;27;45533;-79
2022/09/16 15:53:55;;;;;;;;;1.25;1.25;;;;;19.75;37.58;100693.03;5084375;27;45586;-78
2022/09/16 15:56:24;;;;;;;;;0.50;0.25;;;;;19.69;37.25;100693.38;5066978;28;45542;-78
2022/09/16 15:58:56;;;;;;;;;1.00;1.00;;;;;19.55;38.13;100696.84;5060346;28;46157;-78
2022/09/16 16:01:37;;;;;;;;;2.00;0.25;;;;;19.51;37.88;100695.28;5068336;28;45687;-78
2022/09/16 16:04:09;;;;;;;;;0.00;0.00;;;;;19.38;38.38;100689.75;5059248;28;45448;-78
2022/09/16 16:06:49;;;;;;;;;1.00;1.00;;;;;19.30;38.67;100697.34;5066450;28;45565;-78
2022/09/16 16:09:26;;;;;;;;;1.25;1.25;;;;;19.16;39.23;100696.28;5063151;28;45474;-79
2022/09/16 16:11:55;;;;;;;;;2.75;1.50;;;;;19.03;39.22;100697.88;5063235;27;45482;-77
2022/09/16 16:14:24;;;;;;;;;0.00;0.00;;;;;18.91;39.52;100693.19;5053301;27;45714;-76
2022/09/16 16:16:50;;;;;;;;;1.00;1.00;;;;;18.96;39.79;100702.72;5060529;28;45657;-76
2022/09/16 16:19:17;;;;;;;;;1.50;1.50;;;;;18.84;39.41;100697.94;5067434;28;46386;-78
2022/09/16 16:21:45;;;;;;;;;1.25;1.25;;;;;18.86;39.46;100711.28;5060764;27;45563;-78
2022/09/16 16:24:12;;;;;;;;;2.00;2.00;;;;;18.58;39.81;100681.44;5066564;28;45540;-77
2022/09/16 16:26:38;;;;;;;;;1.00;1.00;;;;;18.74;39.22;100710.09;5066034;27;45540;-78
2022/09/16 16:29:03;;;;;;;;;1.25;1.00;;;;;18.77;39.79;100701.91;5056505;27;45545;-77
2022/09/16 16:31:28;;;;;;;;;2.00;2.00;;;;;18.71;39.48;100695.06;5066035;27;45549;-78
2022/09/16 16:33:54;;;;;;;;;1.00;1.00;;;;;18.79;39.19;100708.03;5082335;27;45547;-78
2022/09/16 16:36:20;;;;;;;;;0.00;0.00;;;;;18.81;38.10;100706.13;5079808;27;45479;-78
2022/09/16 16:38:47;;;;;;;;;1.25;1.00;;;;;18.76;38.42;100711.72;5083946;27;46401;-78
2022/09/16 16:41:18;;;;;;;;;2.25;2.25;;;;;18.82;37.75;100710.56;5079621;27;45564;-78
2022/09/16 16:43:44;;;;;;;;;2.00;2.00;;;;;18.81;37.42;100700.78;5076686;27;45375;-79
2022/09/16 16:46:09;;;;;;;;;1.00;1.00;;;;;18.78;36.29;100701.84;5080699;27;45438;-78
2022/09/16 16:48:34;;;;;;;;;1.00;1.00;;;;;18.69;36.67;100707.66;5078515;27;45475;-78
2022/09/16 16:51:06;;;;;;;;;1.00;1.00;;;;;18.64;36.93;100709.69;5080674;27;45524;-79
2022/09/16 16:53:33;;;;;;;;;3.00;2.00;;;;;18.60;37.02;100709.00;5088545;27;45571;-77
2022/09/16 16:56:08;;;;;;;;;1.50;1.00;;;;;18.59;36.51;100712.59;5085873;27;45601;-76
2022/09/16 16:58:38;;;;;;;;;0.00;0.00;;;;;18.42;36.61;100708.13;5084502;27;45480;-78
2022/09/16 17:01:16;;;;;;;;;0.25;0.25;;;;;18.47;36.21;100719.44;5080252;27;45559;-78
2022/09/16 17:03:43;;;;;;;;;0.50;0.50;;;;;18.44;36.16;100724.97;5078678;27;45404;-78
2022/09/16 17:06:09;;;;;;;;;1.25;1.00;;;;;18.43;36.51;100725.03;5076876;27;45699;-78
2022/09/16 17:08:35;;;;;;;;;0.00;0.00;;;;;18.36;35.62;100718.28;5086311;27;46177;-78
2022/09/16 17:11:20;;;;;;;;;0.00;0.00;;;;;18.22;35.64;100713.59;5081893;27;45690;-80
2022/09/16 17:13:50;;;;;;;;;0.75;0.75;;;;;18.27;35.47;100728.47;5095125;27;45459;-78
2022/09/16 17:16:18;;;;;;;;;1.25;1.25;;;;;18.18;35.57;100723.59;5071233;27;45645;-80
2022/09/16 17:18:44;;;;;;;;;1.00;1.00;;;;;18.13;35.88;100733.66;5084637;27;45498;-79
2022/09/16 17:21:18;;;;;;;;;1.25;1.00;;;;;18.08;35.93;100733.88;5082428;27;45527;-77
2022/09/16 17:23:43;;;;;;;;;0.25;0.25;;;;;18.09;36.51;100742.78;5083400;27;45408;-80
2022/09/16 17:26:09;;;;;;;;;2.00;1.00;;;;;18.04;37.76;100736.78;5084011;27;45437;-77
2022/09/16 17:28:38;;;;;;;;;1.00;1.00;;;;;18.01;37.18;100742.28;5083638;27;45531;-81
2022/09/16 17:31:31;;;;;;;;;1.00;1.00;;;;;18.00;37.68;100746.75;5079369;27;45457;-77
2022/09/16 17:34:01;;;;;;;;;1.25;0.50;;;;;17.98;38.88;100742.44;5072050;27;45739;-79
2022/09/16 17:36:28;;;;;;;;;1.50;0.25;;;;;17.98;39.34;100743.28;5084049;27;45592;-76
2022/09/16 17:39:00;;;;;;;;;3.00;2.00;;;;;17.96;38.03;100736.28;5083588;27;45554;-76
2022/09/16 17:41:26;;;;;;;;;1.75;0.75;;;;;17.95;37.85;100748.78;5077865;27;45566;-77
2022/09/16 17:43:52;;;;;;;;;1.00;1.00;;;;;17.82;36.60;100751.13;5079727;27;45473;-78
2022/09/16 17:46:19;;;;;;;;;1.25;1.25;;;;;17.67;37.18;100762.56;5088139;27;45674;-77
2022/09/16 17:48:44;;;;;;;;;1.00;1.00;;;;;17.54;37.53;100760.44;5080259;27;45476;-76
2022/09/16 17:51:11;;;;;;;;;1.00;1.00;;;;;17.44;38.87;100785.84;5082372;27;45858;-78
2022/09/16 17:53:37;;;;;;;;;1.00;1.00;;;;;17.23;40.36;100793.91;5082956;27;45474;-77
2022/09/16 17:56:14;;;;;;;;;1.50;1.00;;;;;17.12;41.74;100804.19;5083692;27;45526;-78
2022/09/16 17:58:42;;;;;;;;;1.25;1.25;;;;;16.82;44.70;100807.22;5079565;27;47742;-77
2022/09/16 18:01:09;;;;;;;;;1.50;1.00;;;;;16.55;46.20;100816.34;5084556;27;45779;-78
2022/09/16 18:03:36;;;;;;;;;3.00;1.75;;;;;16.40;45.91;100825.84;5077106;27;45587;-77
2022/09/16 18:06:17;;;;;;;;;1.00;1.00;;;;;16.29;46.64;100828.94;5078305;27;45673;-80
2022/09/16 18:08:43;;;;;;;;;1.00;1.00;;;;;16.10;46.92;100824.34;5077627;27;45467;-78
2022/09/16 18:11:12;;;;;;;;;2.75;1.00;;;;;16.07;47.25;100840.47;5095423;27;45385;-78
2022/09/16 18:13:38;;;;;;;;;0.00;0.00;;;;;15.93;46.78;100819.66;5084268;27;45711;-78
2022/09/16 18:16:06;;;;;;;;;2.75;2.75;;;;;15.86;46.98;100834.16;5073817;27;45489;-79
2022/09/16 18:18:35;;;;;;;;;1.75;1.75;;;;;15.65;47.16;100827.78;5087515;27;46312;-79
2022/09/16 18:21:01;;;;;;;;;2.75;1.50;;;;;15.73;47.25;100838.16;5082430;27;45509;-77
2022/09/16 18:23:27;;;;;;;;;2.00;1.00;;;;;15.62;47.05;100839.47;5087440;27;45466;-76